createdAt,value
2023-03-31T09:25:06.140Z,44.92
2023-03-31T09:27:59.385Z,44.77
2023-03-31T09:30:30.978Z,44.61
2023-03-31T09:33:12.055Z,44.46
2023-03-31T09:35:39.144Z,44.46
2023-03-31T09:38:11.700Z,44.25
2023-03-31T09:40:40.869Z,44.14
2023-03-31T09:43:11.176Z,44.10
2023-03-31T09:45:38.795Z,43.76
2023-03-31T09:48:11.988Z,43.79
2023-03-31T09:50:55.602Z,43.84
2023-03-31T09:53:33.970Z,44.15
2023-03-31T09:56:03.245Z,44.10
2023-03-31T09:58:31.261Z,43.96
2023-03-31T10:01:01.093Z,43.53
2023-03-31T10:03:29.076Z,43.56
2023-03-31T10:05:58.341Z,43.71
2023-03-31T10:08:38.908Z,43.43
2023-03-31T10:11:06.740Z,42.99
2023-03-31T10:14:01.772Z,43.10
2023-03-31T10:16:29.229Z,43.22
2023-03-31T10:19:30.534Z,43.24
2023-03-31T10:22:02.260Z,43.35
2023-03-31T10:24:38.191Z,43.36
2023-03-31T10:27:06.569Z,43.00
2023-03-31T10:29:33.955Z,42.85
2023-03-31T10:32:19.195Z,43.06
2023-03-31T10:34:46.072Z,43.28
2023-03-31T10:37:16.575Z,43.43
2023-03-31T10:39:47.012Z,43.67
2023-03-31T10:42:23.455Z,43.85
2023-03-31T10:44:50.424Z,43.92
2023-03-31T10:47:21.292Z,43.87
2023-03-31T10:49:50.936Z,43.86
2023-03-31T10:52:25.299Z,43.92
2023-03-31T10:54:59.237Z,43.96
2023-03-31T10:57:48.396Z,44.03
2023-03-31T11:00:57.319Z,43.90
2023-03-31T11:03:37.479Z,43.96
2023-03-31T11:06:30.610Z,43.73
2023-03-31T11:09:00.614Z,43.70
2023-03-31T11:11:47.557Z,43.82
2023-03-31T11:14:32.979Z,44.14
2023-03-31T11:17:13.840Z,44.23
2023-03-31T11:20:13.634Z,44.41
2023-03-31T11:22:47.790Z,44.20
2023-03-31T11:25:19.052Z,44.41
2023-03-31T11:27:58.125Z,44.13
2023-03-31T11:31:01.303Z,43.12
2023-03-31T11:33:48.318Z,42.04
2023-03-31T11:36:36.149Z,40.88
2023-03-31T11:39:32.970Z,40.33
2023-03-31T11:42:21.059Z,39.85
2023-03-31T11:44:52.439Z,39.05
2023-03-31T11:47:30.598Z,38.26
2023-03-31T11:50:04.343Z,38.55
2023-03-31T11:52:33.954Z,38.63
2023-03-31T11:55:06.286Z,38.66
2023-03-31T11:58:01.043Z,38.67
2023-03-31T12:01:10.291Z,38.70
2023-03-31T12:03:56.857Z,38.73
2023-03-31T12:06:27.430Z,38.58
2023-03-31T12:09:07.534Z,38.62
2023-03-31T12:11:57.027Z,38.97
2023-03-31T12:14:34.324Z,39.24
2023-03-31T12:17:08.692Z,39.48
2023-03-31T12:19:48.124Z,39.95
2023-03-31T12:22:18.061Z,40.06
2023-03-31T12:24:46.419Z,40.19
2023-03-31T12:27:27.138Z,40.14
2023-03-31T12:29:58.727Z,40.20
2023-03-31T12:32:30.919Z,40.12
2023-03-31T12:35:06.810Z,40.06
2023-03-31T12:37:59.548Z,40.27
2023-03-31T12:40:47.780Z,39.98
2023-03-31T12:43:15.416Z,39.81
2023-03-31T12:45:46.160Z,39.86
2023-03-31T12:48:17.260Z,40.23
2023-03-31T12:51:10.823Z,40.35
2023-03-31T12:53:57.112Z,40.21
2023-03-31T12:56:25.253Z,40.67
2023-03-31T12:58:52.705Z,41.04
2023-03-31T13:01:23.084Z,41.24
2023-03-31T13:03:53.234Z,41.59
2023-03-31T13:06:29.081Z,41.88
2023-03-31T13:08:55.925Z,42.19
2023-03-31T13:11:32.582Z,42.03
2023-03-31T13:14:02.697Z,42.25
2023-03-31T13:16:30.636Z,42.40
2023-03-31T13:18:57.577Z,42.65
2023-03-31T13:21:24.396Z,42.91
2023-03-31T13:23:51.154Z,43.10
2023-03-31T13:26:32.899Z,43.27
2023-03-31T13:29:23.908Z,43.72
2023-03-31T13:32:02.914Z,43.89
2023-03-31T13:34:42.109Z,44.10
2023-03-31T13:37:24.051Z,44.73
2023-03-31T13:40:15.375Z,46.10
2023-03-31T13:42:58.064Z,47.69
2023-03-31T13:45:36.986Z,48.52
2023-03-31T13:48:13.447Z,49.31
2023-03-31T13:50:49.079Z,50.15
2023-03-31T13:53:28.528Z,50.40
2023-03-31T13:56:26.429Z,50.91
2023-03-31T13:59:30.451Z,51.99
2023-03-31T14:02:34.305Z,53.19
2023-03-31T14:05:48.987Z,54.10
2023-03-31T14:08:23.811Z,54.76
2023-03-31T14:10:51.343Z,55.42
2023-03-31T14:13:19.064Z,55.68
2023-03-31T14:15:49.274Z,56.62
2023-03-31T14:18:36.768Z,56.82
2023-03-31T14:21:28.686Z,57.25
2023-03-31T14:24:01.684Z,57.97
2023-03-31T14:27:05.978Z,58.67
2023-03-31T14:29:41.049Z,59.67
2023-03-31T14:32:32.718Z,60.33
2023-03-31T14:35:04.567Z,60.66
2023-03-31T14:37:31.468Z,61.39
2023-03-31T14:39:58.442Z,62.15
2023-03-31T14:42:49.080Z,62.97
2023-03-31T14:45:30.798Z,64.07
2023-03-31T14:48:17.869Z,64.85
2023-03-31T14:50:45.925Z,66.03
2023-03-31T14:53:17.349Z,67.33
2023-03-31T14:58:41.206Z,69.78
2023-03-31T15:01:08.992Z,71.15
2023-03-31T15:03:40.934Z,72.51
2023-03-31T15:06:08.245Z,73.56
2023-03-31T15:08:36.226Z,74.72
2023-03-31T15:11:12.801Z,75.94
2023-03-31T15:14:00.663Z,77.05
2023-03-31T15:16:41.883Z,78.45
2023-03-31T15:19:22.060Z,79.45
2023-03-31T15:21:56.541Z,81.04
2023-03-31T15:24:23.434Z,81.84
2023-03-31T15:26:57.382Z,82.97
2023-03-31T15:29:43.964Z,84.08
2023-03-31T15:32:16.910Z,85.63
2023-03-31T15:34:45.840Z,87.00
2023-03-31T15:37:14.941Z,88.14
2023-03-31T15:39:44.683Z,89.38
2023-03-31T15:42:11.585Z,90.47
2023-03-31T15:44:44.181Z,91.98
2023-03-31T15:47:18.429Z,93.08
2023-03-31T15:49:49.737Z,94.09
2023-03-31T15:52:21.530Z,94.98
2023-03-31T15:54:48.660Z,95.95
2023-03-31T15:57:18.877Z,96.36
2023-03-31T15:59:55.270Z,97.03
2023-03-31T16:02:25.459Z,97.83
2023-03-31T16:04:57.723Z,97.91
2023-03-31T16:07:26.734Z,97.94
2023-03-31T16:10:15.358Z,98.27
2023-03-31T16:12:52.102Z,99.20
2023-03-31T16:15:30.132Z,99.39
2023-03-31T16:18:02.539Z,99.60
2023-03-31T16:20:42.491Z,100.00
2023-03-31T16:23:24.814Z,100.00
2023-03-31T16:25:54.502Z,100.00
2023-03-31T16:28:28.500Z,100.00
2023-03-31T16:31:01.273Z,100.00
2023-03-31T16:33:53.466Z,100.00
2023-03-31T16:36:23.086Z,100.00
2023-03-31T16:38:58.153Z,100.00
2023-03-31T16:41:29.774Z,100.00
2023-03-31T16:43:58.460Z,100.00
2023-03-31T16:46:27.383Z,100.00
2023-03-31T16:48:57.620Z,100.00
2023-03-31T16:51:26.531Z,100.00
2023-03-31T16:53:57.541Z,100.00
2023-03-31T16:56:28.610Z,100.00
2023-03-31T16:58:58.518Z,100.00
2023-03-31T17:01:27.248Z,100.00
2023-03-31T17:03:56.390Z,100.00
2023-03-31T17:06:24.981Z,100.00
2023-03-31T17:08:54.540Z,100.00
2023-03-31T17:11:27.749Z,100.00
2023-03-31T17:20:13.357Z,100.00
2023-03-31T17:22:40.236Z,100.00
2023-03-31T17:25:07.758Z,100.00
2023-03-31T17:27:34.905Z,100.00
2023-03-31T17:32:36.314Z,100.00
2023-03-31T17:35:03.794Z,100.00
2023-03-31T17:37:31.443Z,100.00
2023-03-31T17:39:58.606Z,100.00
2023-03-31T17:42:26.507Z,100.00
2023-03-31T17:44:53.958Z,100.00
2023-03-31T17:47:20.741Z,100.00
2023-03-31T17:49:47.541Z,100.00
2023-03-31T17:52:14.605Z,100.00
2023-03-31T17:54:48.757Z,100.00
2023-03-31T17:57:17.304Z,100.00
2023-03-31T17:59:51.195Z,100.00
2023-03-31T18:02:18.185Z,100.00
2023-03-31T18:04:45.132Z,100.00
2023-03-31T18:07:12.452Z,100.00
2023-03-31T18:09:40.092Z,100.00
2023-03-31T18:12:07.046Z,100.00
2023-03-31T18:14:35.002Z,100.00
2023-03-31T18:17:02.062Z,100.00
2023-03-31T18:19:29.608Z,100.00
2023-03-31T18:21:56.476Z,100.00
2023-03-31T18:24:23.415Z,100.00
2023-03-31T18:26:50.371Z,100.00
2023-03-31T18:29:17.998Z,100.00
2023-03-31T18:31:45.309Z,100.00
2023-03-31T18:34:13.173Z,100.00
2023-03-31T18:36:42.908Z,100.00
2023-03-31T18:39:10.204Z,100.00
2023-03-31T18:41:40.303Z,100.00
2023-03-31T18:44:07.068Z,100.00
2023-03-31T18:46:34.071Z,100.00
2023-03-31T18:49:01.028Z,100.00
2023-03-31T18:51:27.973Z,100.00
2023-03-31T18:53:54.704Z,100.00
2023-03-31T18:56:22.586Z,100.00
2023-03-31T18:58:51.263Z,100.00
2023-03-31T19:01:19.795Z,100.00
2023-03-31T19:03:47.924Z,100.00
2023-03-31T19:06:17.166Z,100.00
2023-03-31T19:08:45.805Z,100.00
2023-03-31T19:11:13.558Z,100.00
2023-03-31T19:13:42.273Z,100.00
2023-03-31T19:16:28.890Z,100.00
2023-03-31T19:19:03.418Z,100.00
2023-03-31T19:21:32.683Z,100.00
2023-03-31T19:23:59.525Z,100.00
2023-03-31T19:26:28.465Z,100.00
2023-03-31T19:28:56.425Z,100.00
2023-03-31T19:31:23.717Z,100.00
2023-03-31T19:33:51.717Z,100.00
2023-03-31T19:36:18.875Z,100.00
2023-03-31T19:38:45.798Z,100.00
2023-03-31T19:41:13.788Z,100.00
2023-03-31T19:43:40.610Z,100.00
2023-03-31T19:46:07.517Z,100.00
2023-03-31T19:48:35.009Z,100.00
2023-03-31T19:51:07.996Z,100.00
2023-03-31T19:53:36.898Z,100.00
2023-03-31T19:56:15.227Z,100.00
2023-03-31T19:58:43.972Z,100.00
2023-03-31T20:01:16.979Z,100.00
2023-03-31T20:03:45.293Z,100.00
2023-03-31T20:06:13.634Z,100.00
2023-03-31T20:08:44.182Z,100.00
2023-03-31T20:11:12.893Z,100.00
2023-03-31T20:13:41.371Z,100.00
2023-03-31T20:16:17.615Z,100.00
2023-03-31T20:19:15.900Z,100.00
2023-03-31T20:21:43.639Z,100.00
2023-03-31T20:24:15.782Z,100.00
2023-03-31T20:26:42.887Z,100.00
2023-03-31T20:29:09.841Z,100.00
2023-03-31T20:31:39.748Z,100.00
2023-03-31T20:34:11.634Z,100.00
2023-03-31T20:36:39.543Z,100.00
2023-03-31T20:39:06.463Z,100.00
2023-03-31T20:41:34.369Z,100.00
2023-03-31T20:44:01.377Z,100.00
2023-03-31T20:46:28.925Z,100.00
2023-03-31T20:48:56.798Z,100.00
2023-03-31T20:51:31.874Z,100.00
2023-03-31T20:53:59.414Z,100.00
2023-03-31T20:56:28.489Z,100.00
2023-03-31T20:58:58.334Z,100.00
2023-03-31T21:01:26.715Z,100.00
2023-03-31T21:03:54.456Z,100.00
2023-03-31T21:06:21.713Z,100.00
2023-03-31T21:08:53.103Z,100.00
2023-03-31T21:11:21.127Z,100.00
2023-03-31T21:13:48.256Z,100.00
2023-03-31T21:16:15.878Z,100.00
2023-03-31T21:18:45.018Z,100.00
2023-03-31T21:21:16.061Z,100.00
2023-03-31T21:23:42.805Z,100.00
2023-03-31T21:26:11.174Z,100.00
2023-03-31T21:28:38.059Z,100.00
2023-03-31T21:31:07.052Z,100.00
2023-03-31T21:33:35.239Z,100.00
2023-03-31T21:36:02.306Z,100.00
2023-03-31T21:38:29.688Z,100.00
2023-03-31T21:40:56.945Z,100.00
2023-03-31T21:43:25.683Z,100.00
2023-03-31T21:45:57.466Z,100.00
2023-03-31T21:48:25.871Z,100.00
2023-03-31T21:50:54.290Z,100.00
2023-03-31T21:53:22.314Z,100.00
2023-03-31T21:55:54.786Z,100.00
2023-03-31T21:58:24.667Z,100.00
2023-03-31T22:00:52.223Z,100.00
2023-03-31T22:03:27.301Z,100.00
2023-03-31T22:05:56.288Z,100.00
2023-03-31T22:08:23.589Z,100.00
2023-03-31T22:10:51.446Z,100.00
2023-03-31T22:13:22.541Z,100.00
2023-03-31T22:15:50.110Z,100.00
2023-03-31T22:18:19.208Z,100.00
2023-03-31T22:20:46.355Z,100.00
2023-03-31T22:23:13.402Z,100.00
2023-03-31T22:25:40.949Z,100.00
2023-03-31T22:28:08.708Z,100.00
2023-03-31T22:30:37.716Z,100.00
2023-03-31T22:33:05.655Z,100.00
2023-03-31T22:35:32.793Z,100.00
2023-03-31T22:38:00.926Z,100.00
2023-03-31T22:40:28.896Z,100.00
2023-03-31T22:42:57.951Z,100.00
2023-03-31T22:45:25.178Z,100.00
2023-03-31T22:47:52.355Z,100.00
2023-03-31T22:50:19.498Z,100.00
2023-03-31T22:52:46.668Z,100.00
2023-03-31T22:55:13.818Z,100.00
2023-03-31T22:57:40.777Z,100.00
2023-03-31T23:00:09.231Z,100.00
2023-03-31T23:02:36.795Z,100.00
2023-03-31T23:05:04.171Z,100.00
2023-03-31T23:07:33.436Z,100.00
2023-03-31T23:10:00.504Z,100.00
2023-03-31T23:12:27.964Z,100.00
2023-03-31T23:14:56.724Z,100.00
2023-03-31T23:17:23.981Z,100.00
2023-03-31T23:19:50.924Z,100.00
2023-03-31T23:22:18.379Z,100.00
2023-03-31T23:24:45.323Z,100.00
2023-03-31T23:27:12.372Z,100.00
2023-03-31T23:29:40.853Z,100.00
2023-03-31T23:32:08.989Z,100.00
2023-03-31T23:34:41.090Z,100.00
2023-03-31T23:37:09.408Z,100.00
2023-03-31T23:39:38.354Z,100.00
2023-03-31T23:42:06.320Z,100.00
2023-03-31T23:44:33.684Z,100.00
2023-03-31T23:47:00.515Z,100.00
2023-03-31T23:49:27.682Z,100.00
2023-03-31T23:51:56.072Z,100.00
2023-03-31T23:54:22.989Z,100.00
2023-03-31T23:56:50.757Z,100.00
2023-03-31T23:59:18.142Z,100.00
